Time;durP1;ratioP1;P1;durP2;ratioP2;P2;SDS_P1;SDS_P2;PMS_P1;PMS_P2;Temp;Humidity;BMP_temperature;BMP_pressure;BME280_temperature;BME280_humidity;BME280_pressure;Samples;Min_cycle;Max_cycle;Signal;HPM_P1;HPM_P2
2022/08/14 00:01:03;;;;;;;4.37;4.17;;;;;;;18.30;61.45;99841.44;4946526;29;20457;-49
2022/08/14 00:03:38;;;;;;;3.97;3.67;;;;;;;18.21;62.09;99840.19;4957055;28;20530;-49
2022/08/14 00:06:07;;;;;;;5.20;3.87;;;;;;;18.44;61.58;99835.97;4956426;28;20928;-49
2022/08/14 00:08:51;;;;;;;12.00;3.27;;;;;;;18.53;61.48;99829.97;4942183;28;20538;-49
2022/08/14 00:11:18;;;;;;;6.07;4.03;;;;;;;18.53;61.13;99821.03;4939171;29;20532;-49
2022/08/14 00:13:47;;;;;;;5.30;3.87;;;;;;;18.47;61.05;99816.03;4937636;29;20516;-49
2022/08/14 00:16:19;;;;;;;3.30;3.00;;;;;;;18.58;60.77;99821.56;4946483;29;20483;-49
2022/08/14 00:19:05;;;;;;;2.60;2.40;;;;;;;18.70;60.53;99815.34;4950674;28;20502;-50
2022/08/14 00:21:50;;;;;;;14.80;3.13;;;;;;;18.70;60.65;99809.13;4950969;29;20993;-50
2022/08/14 00:24:18;;;;;;;3.20;2.93;;;;;;;18.61;61.15;99808.75;4950549;28;20534;-49
2022/08/14 00:26:57;;;;;;;4.33;2.70;;;;;;;18.52;61.28;99804.00;4951174;29;20447;-49
2022/08/14 00:29:29;;;;;;;4.10;3.80;;;;;;;18.40;62.23;99810.25;4947967;29;20439;-50
2022/08/14 00:32:06;;;;;;;3.77;3.50;;;;;;;18.46;61.58;99804.41;4947039;29;20960;-49
2022/08/14 00:34:53;;;;;;;9.90;3.30;;;;;;;18.47;61.60;99806.13;4945610;29;20455;-49
2022/08/14 00:37:19;;;;;;;2.80;2.60;;;;;;;18.27;62.36;99812.03;4949865;29;20816;-49
2022/08/14 00:39:46;;;;;;;2.83;2.70;;;;;;;18.24;62.60;99809.56;4951663;29;20479;-50
2022/08/14 00:42:19;;;;;;;6.70;3.07;;;;;;;18.19;62.38;99806.31;4950174;28;20474;-49
2022/08/14 00:45:07;;;;;;;3.47;3.27;;;;;;;18.11;62.76;99805.97;4956150;28;20475;-50
2022/08/14 00:47:37;;;;;;;5.27;2.33;;;;;;;17.99;62.88;99815.72;4943399;29;20544;-50
2022/08/14 00:50:16;;;;;;;2.73;2.50;;;;;;;17.98;62.90;99811.31;4945075;29;20456;-51
2022/08/14 00:52:48;;;;;;;3.97;3.00;;;;;;;17.85;63.31;99813.97;4953130;28;20452;-50
2022/08/14 00:55:18;;;;;;;10.13;1.97;;;;;;;17.82;63.27;99814.16;4947757;29;20502;-50
2022/08/14 00:58:29;;;;;;;3.57;3.23;;;;;;;17.85;63.54;99815.78;4967585;28;20459;-50
2022/08/14 01:00:33;;;;;;;2.37;2.20;;;;;;;17.79;63.84;99802.72;4942613;29;21013;-51
2022/08/14 01:03:18;;;;;;;2.20;2.10;;;;;;;17.88;63.53;99804.81;4955759;28;20917;-51
2022/08/14 01:05:48;;;;;;;4.50;2.63;;;;;;;17.87;63.60;99801.28;4955692;28;20547;-50
2022/08/14 01:08:20;;;;;;;1.93;1.83;;;;;;;17.74;64.13;99801.22;4945074;29;21010;-49
2022/08/14 01:11:07;;;;;;;3.40;3.20;;;;;;;17.75;64.53;99794.00;4943525;29;20444;-50
2022/08/14 01:13:38;;;;;;;3.97;3.30;;;;;;;17.57;65.48;99789.81;4943145;29;20508;-51
2022/08/14 01:16:12;;;;;;;2.60;2.50;;;;;;;17.63;65.08;99784.88;4955551;28;20520;-51
2022/08/14 01:21:35;;;;;;;3.30;3.00;;;;;;;17.59;65.46;99767.25;4947773;29;20483;-51
2022/08/14 01:24:15;;;;;;;2.97;2.77;;;;;;;17.73;65.03;99761.84;4943994;29;20463;-50
2022/08/14 01:26:56;;;;;;;11.80;2.47;;;;;;;17.81;64.82;99749.72;4955409;28;20451;-50
2022/08/14 01:29:26;;;;;;;3.73;2.90;;;;;;;17.80;64.66;99740.78;4944916;28;20440;-50
2022/08/14 01:32:13;;;;;;;3.03;2.73;;;;;;;17.80;65.11;99721.97;4943093;29;20466;-51
2022/08/14 01:34:53;;;;;;;3.90;3.30;;;;;;;18.05;64.18;99723.84;4942202;28;20523;-50
2022/08/14 01:37:47;;;;;;;2.47;2.27;;;;;;;17.98;65.04;99718.03;4955227;28;20448;-50
2022/08/14 01:40:26;;;;;;;3.40;2.87;;;;;;;18.02;64.81;99711.47;4954992;28;20522;-50
2022/08/14 01:43:16;;;;;;;6.53;3.23;;;;;;;18.01;65.02;99703.53;4942363;28;20454;-50
2022/08/14 01:45:52;;;;;;;3.50;3.30;;;;;;;18.16;64.37;99704.28;4954728;28;20995;-50
2022/08/14 01:48:31;;;;;;;15.67;2.50;;;;;;;17.96;64.93;99706.53;4943646;29;20475;-50
2022/08/14 01:51:02;;;;;;;13.03;2.43;;;;;;;17.73;64.89;99704.53;4957458;29;20523;-50
2022/08/14 01:53:30;;;;;;;2.57;2.37;;;;;;;17.81;65.16;99702.16;4946336;29;20459;-50
2022/08/14 01:56:03;;;;;;;2.83;2.63;;;;;;;17.84;65.00;99699.31;4953387;28;20470;-50
2022/08/14 01:58:37;;;;;;;11.30;3.00;;;;;;;17.63;65.68;99708.78;4963174;28;20506;-50
2022/08/14 02:01:23;;;;;;;10.33;3.13;;;;;;;17.42;66.27;99708.38;4942666;29;20530;-50
2022/08/14 02:03:52;;;;;;;2.33;2.13;;;;;;;17.43;66.19;99713.66;4940977;29;20507;-51
2022/08/14 02:06:25;;;;;;;2.87;2.67;;;;;;;17.57;65.86;99711.88;4954690;28;20499;-50
2022/08/14 02:09:01;;;;;;;5.90;3.33;;;;;;;17.69;65.76;99705.72;4951492;28;20448;-51
2022/08/14 02:11:30;;;;;;;6.47;2.50;;;;;;;17.55;65.85;99701.25;4945512;29;20475;-51
2022/08/14 02:14:03;;;;;;;2.70;2.43;;;;;;;17.65;65.45;99705.00;4954351;28;20455;-50
2022/08/14 02:16:49;;;;;;;2.60;2.40;;;;;;;17.61;65.90;99711.56;4942641;28;20483;-50
2022/08/14 02:19:19;;;;;;;4.63;3.43;;;;;;;17.38;66.48;99702.31;4954535;29;20447;-50
2022/08/14 02:21:50;;;;;;;2.87;2.67;;;;;;;17.20;67.60;99703.53;4952932;29;20510;-50
2022/08/14 02:24:20;;;;;;;2.30;1.97;;;;;;;17.25;67.06;99698.72;4943858;29;20458;-50
2022/08/14 02:27:08;;;;;;;3.23;2.80;;;;;;;17.15;67.57;99692.25;4949555;28;20448;-50
2022/08/14 02:29:55;;;;;;;7.33;2.67;;;;;;;17.21;67.18;99693.66;4949470;29;20444;-50
2022/08/14 02:32:29;;;;;;;2.87;2.60;;;;;;;17.32;67.50;99689.31;4954387;29;20547;-51
2022/08/14 02:35:17;;;;;;;2.80;2.43;;;;;;;17.34;67.33;99692.75;4941570;29;20475;-50
2022/08/14 02:37:45;;;;;;;2.73;2.60;;;;;;;17.31;67.87;99690.28;4954306;28;20890;-51
2022/08/14 02:40:15;;;;;;;3.30;2.70;;;;;;;17.29;67.90;99697.59;4948247;28;20499;-50
2022/08/14 02:42:42;;;;;;;3.27;3.07;;;;;;;17.32;68.49;99700.06;4947391;29;20447;-50
2022/08/14 02:45:23;;;;;;;2.80;2.40;;;;;;;17.10;68.77;99694.34;4943258;28;20518;-49
2022/08/14 02:48:01;;;;;;;12.50;4.00;;;;;;;17.12;68.49;99697.81;4941374;29;20502;-50
2022/08/14 02:50:28;;;;;;;5.10;3.00;;;;;;;17.13;68.23;99703.09;4954351;28;20465;-50
2022/08/14 02:52:59;;;;;;;2.23;2.03;;;;;;;17.33;67.70;99700.91;4949468;28;20547;-50
2022/08/14 02:55:29;;;;;;;2.60;2.40;;;;;;;17.18;67.67;99694.72;4946470;29;21015;-50
2022/08/14 02:57:56;;;;;;;8.10;3.43;;;;;;;16.95;68.59;99695.34;4966293;28;20455;-51
2022/08/14 03:00:30;;;;;;;2.43;2.33;;;;;;;16.97;68.76;99696.09;4942169;28;20492;-50
2022/08/14 03:02:57;;;;;;;4.83;2.10;;;;;;;16.83;69.12;99695.16;4953655;29;20466;-50
2022/08/14 03:05:29;;;;;;;2.07;1.93;;;;;;;16.86;69.57;99691.47;4953959;28;20888;-49
2022/08/14 03:08:10;;;;;;;2.27;2.07;;;;;;;16.65;70.92;99693.63;4942574;29;20455;-50
2022/08/14 03:10:41;;;;;;;2.80;2.43;;;;;;;16.66;71.14;99692.66;4954101;28;20510;-51
2022/08/14 03:13:15;;;;;;;2.50;2.30;;;;;;;16.83;70.93;99691.63;4943390;29;20452;-50
2022/08/14 03:15:50;;;;;;;5.20;2.60;;;;;;;16.94;70.42;99685.56;4954581;28;20912;-50
2022/08/14 03:18:24;;;;;;;3.30;2.50;;;;;;;17.07;70.60;99676.63;4957540;29;20458;-50
2022/08/14 03:21:06;;;;;;;1.93;1.83;;;;;;;16.92;71.18;99676.75;4950597;29;20910;-49
2022/08/14 03:23:34;;;;;;;3.07;2.80;;;;;;;17.12;70.38;99673.63;4952958;29;20455;-51
2022/08/14 03:26:05;;;;;;;2.77;2.57;;;;;;;17.00;71.31;99674.47;4957283;28;20838;-50
2022/08/14 03:28:33;;;;;;;2.40;2.30;;;;;;;16.92;71.57;99671.38;4954423;28;20563;-50
2022/08/14 03:31:02;;;;;;;2.50;2.40;;;;;;;16.92;71.50;99668.72;4948110;29;20455;-50
2022/08/14 03:33:29;;;;;;;3.20;3.00;;;;;;;16.92;71.47;99663.34;4957381;28;20451;-51
2022/08/14 03:36:11;;;;;;;4.17;2.70;;;;;;;16.88;72.22;99668.06;4946245;28;20503;-50
2022/08/14 03:38:58;;;;;;;4.33;3.50;;;;;;;16.94;72.54;99664.09;4946459;29;20450;-50
2022/08/14 03:41:45;;;;;;;3.97;3.37;;;;;;;16.96;72.22;99668.41;4944282;29;20490;-50
2022/08/14 03:44:12;;;;;;;2.53;2.40;;;;;;;17.02;72.13;99670.72;4957007;28;20968;-50
2022/08/14 03:46:58;;;;;;;2.60;2.50;;;;;;;16.95;73.08;99673.88;4945934;29;20482;-50
2022/08/14 03:49:28;;;;;;;3.57;3.10;;;;;;;16.71;73.94;99669.09;4945625;29;20876;-50
2022/08/14 03:51:56;;;;;;;3.57;3.37;;;;;;;16.73;74.31;99667.22;4957214;28;20455;-50
2022/08/14 03:54:27;;;;;;;2.83;2.63;;;;;;;16.85;73.30;99666.41;4944095;29;20455;-50
2022/08/14 03:56:53;;;;;;;4.60;4.30;;;;;;;16.84;72.56;99653.94;4965684;28;20464;-50
2022/08/14 03:59:20;;;;;;;2.10;2.00;;;;;;;16.86;72.32;99646.69;4956260;28;20466;-50
2022/08/14 04:01:48;;;;;;;3.03;2.83;;;;;;;16.97;71.45;99639.72;4949055;29;20495;-50
2022/08/14 04:04:27;;;;;;;3.00;2.80;;;;;;;16.89;71.86;99642.94;4957428;28;20451;-50
2022/08/14 04:06:53;;;;;;;2.67;2.40;;;;;;;16.99;71.70;99648.53;4943898;29;20539;-50
2022/08/14 04:09:24;;;;;;;2.23;2.03;;;;;;;16.87;71.14;99643.03;4956504;29;20455;-50
2022/08/14 04:11:52;;;;;;;4.60;3.03;;;;;;;16.78;72.42;99642.75;4956522;28;21072;-53
2022/08/14 04:14:19;;;;;;;4.17;3.77;;;;;;;16.76;71.98;99642.00;4950011;28;20971;-50
2022/08/14 04:16:46;;;;;;;11.57;3.23;;;;;;;16.81;71.96;99643.41;4950406;29;20478;-51
2022/08/14 04:19:18;;;;;;;3.00;2.90;;;;;;;16.58;72.84;99642.19;4956749;29;20455;-51
2022/08/14 04:21:45;;;;;;;4.93;4.20;;;;;;;16.53;73.82;99640.75;4943390;29;20499;-52
2022/08/14 04:24:32;;;;;;;3.77;3.47;;;;;;;16.77;73.10;99635.66;4956268;28;20447;-51
2022/08/14 04:27:07;;;;;;;3.40;2.70;;;;;;;16.93;72.28;99640.91;4955214;28;20843;-51
2022/08/14 04:29:37;;;;;;;5.17;3.20;;;;;;;17.05;71.83;99632.91;4944710;29;20498;-51
2022/08/14 04:32:08;;;;;;;12.13;3.10;;;;;;;17.12;71.95;99642.25;4955275;29;21296;-51
2022/08/14 04:34:55;;;;;;;4.60;4.10;;;;;;;17.08;72.70;99637.19;4953616;28;20898;-51
2022/08/14 04:45:44;;;;;;;3.47;3.17;;;;;;;17.10;72.79;99652.25;4955941;28;20868;-52
2022/08/14 04:48:15;;;;;;;2.33;1.97;;;;;;;17.19;72.75;99648.09;4956038;28;20459;-52
2022/08/14 04:51:04;;;;;;;3.80;2.87;;;;;;;17.18;72.50;99657.13;4956019;29;20520;-52
2022/08/14 04:53:33;;;;;;;2.30;2.20;;;;;;;16.95;73.84;99650.56;4946929;28;20456;-51
2022/08/14 04:56:02;;;;;;;2.23;2.13;;;;;;;17.02;74.08;99651.91;4953956;28;20478;-51
2022/08/14 04:58:37;;;;;;;2.77;2.57;;;;;;;17.00;74.73;99652.97;4964603;28;20455;-52
2022/08/14 05:01:06;;;;;;;3.53;3.33;;;;;;;17.10;74.45;99649.56;4942750;29;20566;-51
2022/08/14 05:03:43;;;;;;;2.93;2.63;;;;;;;17.36;74.19;99653.22;4955738;28;20451;-52
2022/08/14 05:06:11;;;;;;;4.00;3.20;;;;;;;17.96;71.71;99650.06;4949495;28;21024;-52
2022/08/14 05:08:57;;;;;;;4.53;4.13;;;;;;;18.94;68.46;99654.72;4951521;29;20980;-52
2022/08/14 05:11:26;;;;;;;5.90;3.10;;;;;;;19.53;66.22;99651.22;4955802;28;20545;-52
2022/08/14 05:13:54;;;;;;;3.90;2.73;;;;;;;20.18;64.13;99631.81;4942362;28;20953;-52
2022/08/14 05:16:41;;;;;;;6.47;4.10;;;;;;;20.17;64.13;99640.91;4949124;29;20470;-52
2022/08/14 05:19:09;;;;;;;3.37;3.17;;;;;;;20.49;63.04;99624.88;4948997;29;20793;-52
2022/08/14 05:21:55;;;;;;;4.20;3.17;;;;;;;20.88;61.48;99628.88;4950707;29;20490;-53
2022/08/14 05:24:41;;;;;;;7.70;3.70;;;;;;;21.21;60.44;99638.75;4946686;29;20436;-52
2022/08/14 05:27:09;;;;;;;3.73;3.43;;;;;;;21.25;60.33;99629.44;4953815;28;20462;-52
2022/08/14 05:29:35;;;;;;;4.20;4.00;;;;;;;21.44;59.54;99626.03;4945478;28;20453;-52
2022/08/14 05:32:07;;;;;;;4.60;4.30;;;;;;;21.51;59.63;99629.94;4948490;29;20440;-52
2022/08/14 05:34:34;;;;;;;4.23;3.97;;;;;;;21.61;59.38;99626.47;4949291;28;20946;-52
2022/08/14 05:37:01;;;;;;;18.27;4.60;;;;;;;21.80;58.28;99626.63;4945396;28;20977;-52
2022/08/14 05:39:29;;;;;;;7.60;4.07;;;;;;;21.93;58.34;99630.00;4946035;28;20483;-52
2022/08/14 05:41:56;;;;;;;5.03;4.37;;;;;;;21.99;58.83;99628.59;4946069;29;20489;-51
2022/08/14 05:44:23;;;;;;;32.63;5.20;;;;;;;22.23;57.92;99631.06;4946557;29;20441;-52
2022/08/14 05:46:55;;;;;;;3.70;3.40;;;;;;;22.15;58.05;99626.31;4944879;28;20506;-52
2022/08/14 05:49:22;;;;;;;4.53;4.13;;;;;;;22.15;57.96;99626.31;4944427;29;20445;-52
2022/08/14 05:52:00;;;;;;;4.47;4.07;;;;;;;22.48;57.76;99630.63;4945533;29;20435;-52
2022/08/14 05:54:28;;;;;;;3.50;3.20;;;;;;;22.49;57.26;99642.31;4946578;29;20448;-52
2022/08/14 05:57:03;;;;;;;6.60;4.70;;;;;;;22.77;56.81;99647.00;4945520;28;20868;-53
2022/08/14 05:59:29;;;;;;;4.97;4.73;;;;;;;22.69;57.03;99644.09;4943592;29;20455;-53
2022/08/14 06:02:08;;;;;;;4.93;4.53;;;;;;;22.66;57.74;99641.66;4943736;29;20482;-52
2022/08/14 06:04:37;;;;;;;4.60;4.30;;;;;;;22.96;56.94;99633.50;4944360;28;20446;-53
2022/08/14 06:07:04;;;;;;;5.30;3.30;;;;;;;22.88;57.52;99627.91;4946015;29;20452;-52
2022/08/14 06:09:32;;;;;;;5.10;4.43;;;;;;;22.84;57.77;99615.66;4946356;29;20455;-52
2022/08/14 06:12:09;;;;;;;5.50;5.10;;;;;;;22.86;58.23;99612.78;4947414;29;20854;-53
2022/08/14 06:14:38;;;;;;;4.43;3.30;;;;;;;23.09;58.33;99617.00;4942662;29;20507;-52
2022/08/14 06:17:04;;;;;;;4.30;4.00;;;;;;;23.40;57.09;99615.03;4945594;28;20459;-52
2022/08/14 06:19:31;;;;;;;4.33;4.13;;;;;;;23.00;58.44;99617.81;4945148;29;20448;-52
2022/08/14 06:21:57;;;;;;;4.47;4.27;;;;;;;22.89;58.92;99612.50;4947267;29;20490;-52
2022/08/14 06:24:26;;;;;;;4.00;3.70;;;;;;;22.57;59.79;99612.66;4945436;29;20443;-52
2022/08/14 06:26:56;;;;;;;9.40;3.67;;;;;;;22.66;60.61;99609.16;4942989;29;20448;-53
2022/08/14 06:29:32;;;;;;;5.47;5.07;;;;;;;22.84;60.14;99602.09;4945401;29;20467;-53
2022/08/14 06:32:01;;;;;;;4.57;4.33;;;;;;;22.87;59.37;99596.38;4944318;29;20458;-52
2022/08/14 06:34:47;;;;;;;4.47;4.17;;;;;;;23.01;59.74;99593.28;4953828;28;20992;-52
2022/08/14 06:37:57;;;;;;;6.10;5.60;;;;;;;22.96;60.71;99589.28;4944923;29;20465;-53
2022/08/14 06:40:25;;;;;;;3.70;3.40;;;;;;;22.77;60.99;99590.94;4938238;28;20834;-53
2022/08/14 06:43:05;;;;;;;5.10;4.60;;;;;;;22.88;61.71;99578.28;4950815;29;20457;-54
2022/08/14 06:45:34;;;;;;;4.23;4.03;;;;;;;22.96;61.69;99579.28;4953945;28;20467;-54
2022/08/14 06:48:02;;;;;;;6.97;4.40;;;;;;;23.19;61.04;99571.78;4941219;28;20455;-53
2022/08/14 06:50:31;;;;;;;5.47;4.97;;;;;;;23.24;61.97;99571.34;4956159;28;20447;-54
2022/08/14 06:52:59;;;;;;;4.97;4.67;;;;;;;23.19;62.50;99569.06;4953169;28;20463;-54
2022/08/14 06:55:26;;;;;;;4.57;4.27;;;;;;;23.43;62.36;99567.75;4950178;29;20845;-54
2022/08/14 06:57:55;;;;;;;4.50;4.20;;;;;;;23.22;63.89;99557.06;4964413;28;20460;-53
2022/08/14 07:00:25;;;;;;;4.03;3.73;;;;;;;23.49;63.25;99569.91;4950702;29;20941;-53
2022/08/14 07:05:46;;;;;;;17.13;4.37;;;;;;;24.11;62.30;99557.66;4944614;28;20504;-53
2022/08/14 07:08:28;;;;;;;4.90;4.57;;;;;;;24.67;60.44;99557.59;4956758;29;20800;-54
2022/08/14 07:10:59;;;;;;;4.10;3.30;;;;;;;24.54;60.41;99551.66;4952240;28;20444;-54
2022/08/14 07:13:27;;;;;;;8.70;4.40;;;;;;;24.72;65.06;99548.97;4950659;29;20956;-54
2022/08/14 07:15:55;;;;;;;7.30;5.00;;;;;;;24.91;66.44;99556.16;4957271;28;20495;-53
2022/08/14 07:18:28;;;;;;;5.70;5.20;;;;;;;24.95;66.33;99555.72;4944558;29;20547;-53
2022/08/14 07:20:57;;;;;;;9.23;6.10;;;;;;;24.78;66.88;99556.50;4957297;28;20502;-53
2022/08/14 07:23:24;;;;;;;4.43;4.20;;;;;;;24.89;66.47;99553.59;4941689;29;20463;-53
2022/08/14 07:25:53;;;;;;;6.00;5.50;;;;;;;24.96;66.96;99542.97;4957335;28;20475;-53
2022/08/14 07:28:25;;;;;;;5.30;4.90;;;;;;;24.99;66.66;99538.06;4946610;28;20819;-53
2022/08/14 07:30:56;;;;;;;6.57;4.43;;;;;;;25.13;65.91;99536.69;4952022;29;20475;-53
2022/08/14 07:33:44;;;;;;;5.20;4.00;;;;;;;25.17;65.63;99542.69;4944351;28;20451;-53
2022/08/14 07:36:17;;;;;;;4.67;4.10;;;;;;;25.40;65.08;99544.78;4957072;28;20471;-52
2022/08/14 07:39:00;;;;;;;14.23;4.60;;;;;;;25.28;64.26;99543.31;4938885;28;20480;-54
2022/08/14 07:41:37;;;;;;;5.50;5.10;;;;;;;25.40;64.80;99549.38;4957152;28;20491;-54
2022/08/14 07:44:10;;;;;;;5.43;5.13;;;;;;;25.43;64.36;99551.78;4946643;28;20461;-54
2022/08/14 07:46:56;;;;;;;5.03;3.77;;;;;;;25.59;63.57;99546.44;4944875;29;20451;-54
2022/08/14 07:49:23;;;;;;;7.60;6.63;;;;;;;25.80;63.66;99557.03;4945296;29;20474;-54
2022/08/14 07:51:50;;;;;;;5.17;4.77;;;;;;;25.87;63.23;99558.09;4957166;28;20466;-55
2022/08/14 07:54:17;;;;;;;3.80;3.60;;;;;;;25.98;62.43;99568.72;4944130;28;20456;-55
2022/08/14 07:56:59;;;;;;;4.10;3.80;;;;;;;25.99;62.02;99569.59;4965951;28;20454;-54
2022/08/14 07:59:40;;;;;;;3.93;3.73;;;;;;;26.04;61.64;99567.25;4944078;29;20459;-54
2022/08/14 08:02:11;;;;;;;4.77;4.47;;;;;;;25.95;62.22;99560.03;4942904;28;21013;-54
2022/08/14 08:04:52;;;;;;;12.83;4.17;;;;;;;26.14;61.82;99545.31;4956905;28;20466;-55
2022/08/14 08:07:23;;;;;;;4.03;3.83;;;;;;;25.88;61.82;99540.72;4953737;29;20508;-55
2022/08/14 08:09:56;;;;;;;3.80;3.60;;;;;;;25.88;61.62;99554.34;4948082;29;20459;-55
2022/08/14 08:12:25;;;;;;;4.53;4.23;;;;;;;26.15;60.56;99544.31;4956724;28;20517;-55
2022/08/14 08:14:58;;;;;;;4.30;4.10;;;;;;;26.46;60.06;99555.59;4944958;29;20915;-54
2022/08/14 08:17:32;;;;;;;5.07;4.67;;;;;;;26.52;59.71;99544.88;4944949;29;20450;-54
2022/08/14 08:20:14;;;;;;;5.47;5.07;;;;;;;26.62;59.43;99552.06;4943726;28;20824;-55
2022/08/14 08:22:42;;;;;;;6.47;6.07;;;;;;;26.34;59.89;99546.81;4956570;28;20529;-54
2022/08/14 08:25:19;;;;;;;5.43;5.10;;;;;;;26.62;60.22;99546.63;4952886;28;20527;-55
2022/08/14 08:28:07;;;;;;;11.93;5.67;;;;;;;26.81;57.81;99538.16;4953319;29;20534;-55
2022/08/14 08:30:52;;;;;;;6.80;6.20;;;;;;;26.80;58.54;99536.44;4945554;29;20507;-55
2022/08/14 08:33:20;;;;;;;9.73;6.10;;;;;;;26.27;59.57;99543.00;4943584;28;20452;-54
2022/08/14 08:35:49;;;;;;;4.10;3.80;;;;;;;26.33;59.45;99536.06;4956305;28;20507;-55
2022/08/14 08:38:18;;;;;;;6.97;5.40;;;;;;;26.55;59.06;99544.53;4952371;28;20495;-55
2022/08/14 08:41:05;;;;;;;4.43;4.13;;;;;;;26.71;57.82;99543.72;4949898;29;21024;-55
2022/08/14 08:43:38;;;;;;;4.43;4.13;;;;;;;26.97;56.57;99542.78;4956183;29;20451;-55
2022/08/14 08:46:18;;;;;;;4.50;4.20;;;;;;;27.08;56.38;99531.59;4943275;29;20476;-55
2022/08/14 08:48:57;;;;;;;4.03;3.40;;;;;;;27.40;55.30;99528.88;4952057;28;20823;-55
2022/08/14 08:51:30;;;;;;;3.67;3.23;;;;;;;27.23;55.96;99529.91;4954807;29;20479;-54
2022/08/14 08:54:09;;;;;;;4.40;4.03;;;;;;;27.21;54.91;99528.38;4943139;29;20827;-55
2022/08/14 08:56:50;;;;;;;3.10;3.00;;;;;;;27.38;54.67;99530.94;4952941;28;20987;-55
2022/08/14 08:59:25;;;;;;;3.47;3.27;;;;;;;27.62;52.27;99527.34;4955600;28;20946;-55
2022/08/14 09:02:04;;;;;;;5.40;3.53;;;;;;;27.51;52.93;99524.97;4947970;29;21016;-55
2022/08/14 09:04:37;;;;;;;3.27;3.07;;;;;;;27.55;51.72;99523.63;4955612;28;21033;-54
2022/08/14 09:07:19;;;;;;;3.50;3.30;;;;;;;27.84;50.00;99519.50;4942684;28;20512;-54
2022/08/14 09:09:52;;;;;;;5.10;3.27;;;;;;;28.11;48.75;99518.25;4955548;28;20952;-55
2022/08/14 09:12:27;;;;;;;4.10;3.90;;;;;;;28.01;50.65;99516.56;4950672;28;20452;-55
2022/08/14 09:15:05;;;;;;;3.07;2.87;;;;;;;27.95;51.42;99506.31;4947589;29;20494;-55
2022/08/14 09:17:38;;;;;;;2.53;2.33;;;;;;;28.09;51.08;99506.63;4955611;28;20498;-55
2022/08/14 09:20:07;;;;;;;2.63;2.43;;;;;;;28.29;49.78;99508.81;4954431;29;20455;-55
2022/08/14 09:22:39;;;;;;;3.70;3.47;;;;;;;28.05;49.68;99506.13;4944219;29;20533;-54
2022/08/14 09:25:14;;;;;;;3.27;3.07;;;;;;;28.39;49.15;99502.31;4955307;28;20478;-55
2022/08/14 09:27:40;;;;;;;2.40;2.20;;;;;;;28.27;47.56;99505.41;4953007;28;20527;-54
2022/08/14 09:30:09;;;;;;;4.07;3.77;;;;;;;28.31;48.43;99492.22;4950464;29;20447;-55
2022/08/14 09:33:14;;;;;;;4.07;3.00;;;;;;;28.83;48.65;99497.09;4955285;29;20444;-56
2022/08/14 09:35:57;;;;;;;4.03;2.83;;;;;;;28.31;48.70;99484.03;4945512;29;20652;-55
2022/08/14 09:38:45;;;;;;;3.77;3.53;;;;;;;28.91;47.12;99478.75;4942270;28;20451;-54
2022/08/14 09:41:29;;;;;;;3.37;3.17;;;;;;;28.91;46.84;99481.50;4954894;28;20479;-55
2022/08/14 09:44:40;;;;;;;3.57;2.50;;;;;;;28.99;47.58;99488.81;4942828;28;20452;-55
2022/08/14 09:47:11;;;;;;;8.33;3.03;;;;;;;28.97;46.94;99487.28;4945432;29;20462;-55
2022/08/14 09:49:41;;;;;;;7.20;3.10;;;;;;;28.70;46.14;99491.38;4942625;29;20443;-55
2022/08/14 09:52:09;;;;;;;2.77;2.57;;;;;;;28.50;45.09;99478.13;4954648;28;20538;-55
2022/08/14 09:54:55;;;;;;;3.33;3.03;;;;;;;29.02;44.45;99471.16;4942978;28;20471;-55
2022/08/14 09:57:25;;;;;;;3.10;2.57;;;;;;;29.05;45.21;99474.38;4965702;28;20494;-55
2022/08/14 09:59:54;;;;;;;2.30;2.20;;;;;;;29.19;43.48;99476.34;4946647;29;20449;-55
2022/08/14 10:02:27;;;;;;;2.80;2.60;;;;;;;29.14;43.88;99459.59;4949851;29;21001;-55
2022/08/14 10:05:09;;;;;;;3.23;2.83;;;;;;;29.63;42.25;99455.63;4954679;28;20510;-54
2022/08/14 10:07:52;;;;;;;2.47;2.37;;;;;;;30.11;41.31;99465.19;4941424;29;20980;-55
2022/08/14 10:10:34;;;;;;;3.70;2.03;;;;;;;29.76;42.73;99464.88;4955093;28;20456;-55
2022/08/14 10:13:03;;;;;;;3.37;3.10;;;;;;;29.49;42.59;99469.09;4945494;29;20454;-55
2022/08/14 10:15:32;;;;;;;2.30;2.10;;;;;;;29.58;42.17;99467.13;4949165;29;20519;-54
2022/08/14 10:18:10;;;;;;;3.73;2.60;;;;;;;29.64;42.45;99471.88;4949086;29;20547;-51
2022/08/14 10:20:56;;;;;;;3.03;2.80;;;;;;;30.22;42.29;99470.22;4945238;28;20459;-50
2022/08/14 10:23:26;;;;;;;3.10;2.90;;;;;;;30.26;41.63;99474.25;4953545;29;20502;-50
2022/08/14 10:26:05;;;;;;;2.27;2.17;;;;;;;30.52;39.90;99465.53;4946410;28;20896;-50
2022/08/14 10:28:52;;;;;;;8.43;2.73;;;;;;;30.64;39.44;99463.16;4947638;28;20444;-51
2022/08/14 10:31:38;;;;;;;2.37;2.27;;;;;;;31.00;38.89;99452.16;4947629;29;20463;-52
2022/08/14 10:34:12;;;;;;;2.50;2.40;;;;;;;31.49;38.02;99451.34;4936934;29;20478;-51
2022/08/14 10:36:42;;;;;;;2.30;1.90;;;;;;;31.46;35.29;99440.75;4939507;29;20471;-52
2022/08/14 10:39:20;;;;;;;1.73;1.63;;;;;;;31.01;35.46;99437.38;4954816;28;20844;-50
2022/08/14 10:41:48;;;;;;;2.20;2.10;;;;;;;31.14;35.79;99432.03;4948557;29;20499;-51
2022/08/14 10:44:23;;;;;;;2.47;2.27;;;;;;;31.28;35.56;99421.19;4946684;29;20451;-51
2022/08/14 10:46:51;;;;;;;2.23;2.13;;;;;;;31.48;35.45;99414.78;4936050;28;20467;-54
2022/08/14 10:49:47;;;;;;;1.10;1.10;;;;;;;31.30;33.74;99397.97;4951660;29;20452;-51
2022/08/14 10:52:25;;;;;;;2.97;1.57;;;;;;;30.88;34.26;99396.09;4941726;28;20533;-52
2022/08/14 10:55:04;;;;;;;1.63;1.53;;;;;;;31.38;33.25;99392.28;4941496;28;20471;-51
2022/08/14 10:57:32;;;;;;;1.63;1.50;;;;;;;31.30;33.51;99375.97;4964241;28;20457;-51
2022/08/14 11:00:12;;;;;;;2.03;1.90;;;;;;;31.67;33.92;99371.16;4945007;28;20807;-51
2022/08/14 11:03:00;;;;;;;2.40;1.83;;;;;;;31.27;35.81;99364.56;4952350;29;20495;-51
2022/08/14 11:05:48;;;;;;;2.90;2.77;;;;;;;31.22;33.12;99378.88;4954163;28;20479;-51
2022/08/14 11:08:31;;;;;;;3.37;2.20;;;;;;;30.84;32.64;99373.69;4967971;28;20959;-51
2022/08/14 11:11:02;;;;;;;2.33;2.23;;;;;;;31.48;32.64;99370.81;4948175;28;20459;-51
2022/08/14 11:13:30;;;;;;;1.97;1.63;;;;;;;31.90;31.89;99368.13;4953896;28;20494;-52
2022/08/14 11:16:01;;;;;;;1.63;1.53;;;;;;;31.98;31.53;99367.97;4941251;29;20464;-51
2022/08/14 11:18:29;;;;;;;2.53;2.40;;;;;;;31.96;32.34;99365.44;4954087;28;20834;-50
2022/08/14 11:21:05;;;;;;;3.33;2.27;;;;;;;31.94;32.62;99366.69;4947783;28;20439;-51
2022/08/14 11:23:34;;;;;;;3.60;2.20;;;;;;;31.31;32.82;99363.94;4945635;29;20830;-52
2022/08/14 11:26:07;;;;;;;1.77;1.67;;;;;;;31.76;32.79;99361.72;4947259;29;20542;-51
2022/08/14 11:28:43;;;;;;;2.80;1.73;;;;;;;31.67;32.78;99351.94;4940946;28;20537;-51
2022/08/14 11:31:16;;;;;;;1.60;1.50;;;;;;;31.82;32.38;99348.03;4953822;28;20469;-51
2022/08/14 11:33:42;;;;;;;3.20;3.00;;;;;;;32.17;32.38;99358.94;4947680;29;20452;-51
2022/08/14 11:36:10;;;;;;;2.53;2.00;;;;;;;31.42;32.07;99360.66;4948439;28;20475;-50
2022/08/14 11:38:45;;;;;;;1.40;1.30;;;;;;;31.46;31.29;99353.69;4957465;28;20799;-53
2022/08/14 11:41:13;;;;;;;1.20;1.10;;;;;;;31.47;31.46;99360.88;4946398;28;20448;-50
2022/08/14 11:43:45;;;;;;;1.83;1.73;;;;;;;31.06;31.33;99354.41;4947893;29;20493;-50
2022/08/14 11:46:25;;;;;;;5.30;1.80;;;;;;;31.32;31.32;99351.06;4949894;28;20459;-51
2022/08/14 11:49:03;;;;;;;1.40;1.30;;;;;;;31.21;31.69;99352.44;4948926;28;20494;-50
2022/08/14 11:51:31;;;;;;;1.47;1.37;;;;;;;31.46;31.25;99345.44;4948100;28;20470;-50
2022/08/14 11:54:17;;;;;;;1.80;1.70;;;;;;;31.52;31.33;99352.03;4948717;28;20440;-50
2022/08/14 11:56:48;;;;;;;1.57;1.47;;;;;;;31.14;31.84;99348.78;4963053;28;20533;-50
2022/08/14 11:59:18;;;;;;;1.83;1.03;;;;;;;30.92;32.09;99346.06;4951238;29;20828;-50
2022/08/14 12:01:51;;;;;;;1.63;1.00;;;;;;;31.27;32.12;99348.91;4948379;29;20465;-50
2022/08/14 12:04:20;;;;;;;1.00;1.00;;;;;;;31.70;32.06;99344.13;4952142;28;20455;-50
2022/08/14 12:06:59;;;;;;;1.57;1.47;;;;;;;31.80;32.00;99333.63;4950443;29;20483;-50
2022/08/14 12:09:29;;;;;;;1.60;1.50;;;;;;;32.25;31.27;99331.25;4944261;29;20459;-50
2022/08/14 12:11:56;;;;;;;11.50;2.27;;;;;;;32.12;31.36;99326.56;4944009;28;20448;-50
2022/08/14 12:14:22;;;;;;;3.23;1.10;;;;;;;32.50;30.94;99328.81;4956666;28;20459;-51
2022/08/14 12:17:06;;;;;;;1.43;1.33;;;;;;;32.20;30.94;99324.66;4953789;29;20455;-50
2022/08/14 12:19:45;;;;;;;1.43;1.33;;;;;;;32.15;30.16;99311.53;4947287;29;20455;-51
2022/08/14 12:22:39;;;;;;;1.93;1.80;;;;;;;31.94;31.06;99312.53;4956262;28;20490;-50